createdAt,value
2022-09-30T00:01:46.571Z,34.22
2022-09-30T00:04:16.196Z,34.10
2022-09-30T00:06:44.605Z,34.18
2022-09-30T00:09:14.370Z,34.10
2022-09-30T00:11:43.858Z,34.11
2022-09-30T00:14:16.195Z,34.39
2022-09-30T00:16:45.172Z,34.09
2022-09-30T00:19:13.400Z,34.08
2022-09-30T00:21:41.549Z,34.31
2022-09-30T00:24:09.520Z,34.30
2022-09-30T00:26:38.977Z,34.34
2022-09-30T00:29:07.529Z,34.13
2022-09-30T00:31:36.566Z,34.22
2022-09-30T00:34:08.151Z,34.22
2022-09-30T00:36:38.761Z,34.32
2022-09-30T00:39:08.208Z,34.45
2022-09-30T00:41:37.302Z,34.31
2022-09-30T00:44:38.440Z,34.61
2022-09-30T00:47:25.820Z,34.72
2022-09-30T00:49:54.496Z,34.40
2022-09-30T00:52:22.601Z,34.53
2022-09-30T00:54:51.354Z,34.75
2022-09-30T00:57:19.440Z,34.47
2022-09-30T00:59:51.622Z,34.71
2022-09-30T01:02:21.437Z,34.77
2022-09-30T01:04:49.524Z,34.70
2022-09-30T01:07:17.485Z,34.70
2022-09-30T01:09:45.760Z,34.90
2022-09-30T01:12:17.630Z,35.03
2022-09-30T01:14:51.181Z,35.12
2022-09-30T01:17:29.953Z,35.02
2022-09-30T01:20:44.610Z,34.86
2022-09-30T01:23:42.765Z,34.73
2022-09-30T01:26:31.001Z,34.94
2022-09-30T01:29:43.093Z,35.08
2022-09-30T01:32:22.930Z,35.11
2022-09-30T01:35:00.118Z,34.94
2022-09-30T01:37:39.852Z,34.89
2022-09-30T01:40:22.197Z,35.14
2022-09-30T01:42:57.715Z,34.95
2022-09-30T01:45:35.106Z,35.04
2022-09-30T01:48:13.812Z,34.80
2022-09-30T01:50:51.213Z,34.79
2022-09-30T01:53:25.672Z,34.77
2022-09-30T01:55:57.560Z,35.10
2022-09-30T01:58:33.892Z,34.89
2022-09-30T02:01:07.233Z,34.63
2022-09-30T02:03:39.899Z,34.57
2022-09-30T02:06:12.088Z,34.58
2022-09-30T02:08:46.284Z,34.79
2022-09-30T02:11:17.625Z,34.60
2022-09-30T02:13:52.946Z,34.67
2022-09-30T02:16:24.964Z,34.84
2022-09-30T02:18:58.697Z,34.48
2022-09-30T02:21:33.545Z,34.81
2022-09-30T02:24:07.661Z,34.89
2022-09-30T02:26:38.924Z,34.62
2022-09-30T02:29:12.165Z,34.79
2022-09-30T02:31:43.616Z,34.77
2022-09-30T02:34:17.063Z,34.56
2022-09-30T02:36:50.823Z,34.95
2022-09-30T02:39:26.983Z,34.64
2022-09-30T02:42:02.488Z,34.59
2022-09-30T02:44:31.888Z,34.83
2022-09-30T02:47:13.045Z,34.65
2022-09-30T02:49:49.458Z,34.75
2022-09-30T02:52:25.988Z,34.65
2022-09-30T02:55:03.575Z,34.99
2022-09-30T02:57:40.884Z,35.07
2022-09-30T03:00:12.915Z,35.21
2022-09-30T03:02:41.561Z,34.89
2022-09-30T03:05:12.021Z,34.80
2022-09-30T03:07:41.477Z,35.06
2022-09-30T03:10:14.737Z,34.91
2022-09-30T03:12:58.296Z,34.77
2022-09-30T03:15:39.855Z,35.26
2022-09-30T03:18:30.894Z,34.78
2022-09-30T03:21:09.819Z,35.03
2022-09-30T03:23:58.808Z,35.10
2022-09-30T03:26:38.243Z,34.87
2022-09-30T03:29:15.216Z,34.91
2022-09-30T03:31:53.776Z,35.08
2022-09-30T03:34:33.164Z,35.18
2022-09-30T03:37:12.880Z,35.04
2022-09-30T03:39:54.482Z,35.00
2022-09-30T03:42:29.099Z,35.33
2022-09-30T03:45:02.534Z,35.42
2022-09-30T03:47:35.719Z,35.24
2022-09-30T03:50:08.761Z,34.88
2022-09-30T03:52:38.491Z,35.02
2022-09-30T03:55:11.549Z,35.33
2022-09-30T03:57:39.724Z,35.27
2022-09-30T04:00:08.992Z,34.89
2022-09-30T04:02:37.916Z,35.01
2022-09-30T04:05:07.514Z,35.09
2022-09-30T04:07:37.150Z,34.90
2022-09-30T04:10:06.601Z,35.16
2022-09-30T04:12:34.450Z,35.10
2022-09-30T04:15:02.391Z,34.85
2022-09-30T04:17:30.249Z,35.21
2022-09-30T04:19:58.167Z,35.09
2022-09-30T04:22:26.690Z,35.17
2022-09-30T04:24:56.015Z,35.34
2022-09-30T04:27:24.276Z,34.97
2022-09-30T04:29:52.121Z,35.35
2022-09-30T04:32:20.033Z,35.36
2022-09-30T04:34:47.901Z,34.99
2022-09-30T04:37:15.757Z,35.44
2022-09-30T04:39:44.282Z,35.17
2022-09-30T04:42:13.651Z,35.46
2022-09-30T04:44:41.524Z,35.03
2022-09-30T04:47:09.536Z,35.37
2022-09-30T04:49:37.493Z,35.28
2022-09-30T04:52:05.416Z,35.41
2022-09-30T04:54:33.280Z,35.27
2022-09-30T04:57:01.146Z,35.47
2022-09-30T04:59:30.372Z,35.36
2022-09-30T05:01:58.309Z,35.62
2022-09-30T05:04:26.313Z,35.83
2022-09-30T05:06:54.301Z,35.52
2022-09-30T05:09:22.497Z,35.74
2022-09-30T05:11:50.636Z,35.54
2022-09-30T05:14:18.780Z,35.65
2022-09-30T05:16:48.009Z,35.82
2022-09-30T05:19:15.860Z,35.89
2022-09-30T05:21:44.923Z,35.88
2022-09-30T05:24:12.930Z,36.04
2022-09-30T05:26:41.257Z,35.73
2022-09-30T05:29:10.841Z,35.71
2022-09-30T05:31:38.887Z,35.91
2022-09-30T05:34:08.220Z,35.84
2022-09-30T05:36:36.182Z,35.77
2022-09-30T05:39:04.158Z,35.80
2022-09-30T05:41:32.772Z,35.92
2022-09-30T05:44:01.279Z,35.84
2022-09-30T05:46:29.248Z,36.03
2022-09-30T05:48:57.295Z,36.05
2022-09-30T05:51:27.423Z,35.82
2022-09-30T05:53:55.329Z,35.80
2022-09-30T05:56:23.185Z,35.81
2022-09-30T05:58:51.397Z,35.99
2022-09-30T06:01:19.286Z,35.71
2022-09-30T06:03:48.021Z,35.70
2022-09-30T06:06:17.029Z,35.78
2022-09-30T06:08:47.020Z,35.84
2022-09-30T06:11:17.331Z,35.39
2022-09-30T06:13:47.346Z,35.30
2022-09-30T06:16:15.894Z,35.48
2022-09-30T06:18:43.876Z,35.43
2022-09-30T06:21:13.649Z,35.38
2022-09-30T06:23:42.281Z,35.59
2022-09-30T06:26:14.350Z,35.67
2022-09-30T06:28:43.333Z,35.45
2022-09-30T06:31:11.434Z,35.14
2022-09-30T06:33:39.518Z,35.48
2022-09-30T06:36:07.448Z,35.07
2022-09-30T06:38:37.234Z,35.29
2022-09-30T06:41:05.824Z,35.45
2022-09-30T06:43:41.677Z,35.35
2022-09-30T06:46:18.839Z,35.08
2022-09-30T06:48:48.378Z,35.41
2022-09-30T06:51:17.084Z,35.39
2022-09-30T06:53:45.022Z,34.92
2022-09-30T06:56:13.137Z,35.05
2022-09-30T06:58:45.324Z,35.22
2022-09-30T07:01:15.302Z,34.90
2022-09-30T07:03:45.934Z,34.92
2022-09-30T07:06:16.091Z,35.44
2022-09-30T07:08:44.020Z,35.18
2022-09-30T07:11:14.683Z,34.97
2022-09-30T07:13:45.227Z,35.01
2022-09-30T07:16:13.820Z,35.29
2022-09-30T07:18:43.694Z,35.36
2022-09-30T07:21:13.613Z,35.18
2022-09-30T07:23:45.682Z,35.41
2022-09-30T07:26:13.760Z,35.40
2022-09-30T07:28:43.796Z,35.18
2022-09-30T07:31:31.861Z,35.23
2022-09-30T07:34:01.198Z,35.47
2022-09-30T07:36:33.190Z,35.20
2022-09-30T07:39:06.326Z,34.90
2022-09-30T07:41:36.637Z,35.13
2022-09-30T07:44:07.229Z,34.88
2022-09-30T07:46:38.870Z,34.86
2022-09-30T07:49:12.727Z,34.81
2022-09-30T07:51:44.105Z,34.77
2022-09-30T07:54:15.114Z,35.00
2022-09-30T07:59:36.184Z,34.58
2022-09-30T08:02:05.357Z,34.85
2022-09-30T08:04:33.249Z,34.49
2022-09-30T08:07:03.513Z,34.86
2022-09-30T08:09:32.221Z,34.85
2022-09-30T08:12:00.265Z,34.74
2022-09-30T08:14:29.101Z,34.44
2022-09-30T08:17:00.394Z,34.31
2022-09-30T08:19:29.972Z,34.61
2022-09-30T08:21:58.636Z,34.25
2022-09-30T08:24:27.685Z,34.19
2022-09-30T08:26:55.866Z,34.33
2022-09-30T08:32:13.254Z,34.06
2022-09-30T08:34:41.177Z,34.03
2022-09-30T08:37:10.225Z,34.34
2022-09-30T08:39:38.574Z,33.95
2022-09-30T08:42:35.961Z,34.43
2022-09-30T08:45:13.376Z,33.97
2022-09-30T08:47:51.908Z,34.32
2022-09-30T08:50:30.029Z,34.40
2022-09-30T08:53:02.434Z,34.25
2022-09-30T08:55:39.652Z,33.98
2022-09-30T08:58:12.592Z,34.18
2022-09-30T09:00:42.994Z,34.29
2022-09-30T09:03:15.393Z,34.24
2022-09-30T09:05:52.741Z,34.03
2022-09-30T09:08:30.516Z,33.77
2022-09-30T09:11:03.215Z,33.67
2022-09-30T09:13:46.291Z,34.00
2022-09-30T09:16:23.733Z,33.75
2022-09-30T09:19:11.278Z,33.81
2022-09-30T09:21:53.541Z,33.86
2022-09-30T09:24:25.114Z,33.73
2022-09-30T09:26:55.117Z,33.72
2022-09-30T09:29:41.883Z,34.09
2022-09-30T09:32:15.658Z,33.74
2022-09-30T09:34:46.157Z,34.03
2022-09-30T09:37:43.656Z,33.76
2022-09-30T09:40:15.365Z,33.79
2022-09-30T09:43:03.192Z,33.30
2022-09-30T09:45:39.560Z,33.38
2022-09-30T09:48:11.998Z,33.49
2022-09-30T09:50:50.743Z,33.58
2022-09-30T09:53:43.275Z,33.52
2022-09-30T09:56:22.113Z,33.85
2022-09-30T09:59:10.780Z,34.00
2022-09-30T10:01:41.329Z,33.99
2022-09-30T10:04:22.049Z,33.69
2022-09-30T10:06:54.553Z,34.04
2022-09-30T10:09:31.837Z,33.80
2022-09-30T10:12:30.440Z,34.21
2022-09-30T10:15:01.629Z,34.18
2022-09-30T10:17:31.872Z,34.07
2022-09-30T10:20:07.853Z,33.79
2022-09-30T10:22:37.878Z,34.06
2022-09-30T10:25:26.561Z,33.93
2022-09-30T10:27:57.633Z,33.56
2022-09-30T10:30:39.412Z,33.48
2022-09-30T10:33:16.172Z,33.75
2022-09-30T10:36:14.713Z,33.78
2022-09-30T10:39:05.951Z,33.63
2022-09-30T10:41:37.021Z,33.62
2022-09-30T10:44:08.571Z,33.58
2022-09-30T10:46:40.440Z,33.55
2022-09-30T10:49:11.893Z,33.32
2022-09-30T10:51:40.374Z,33.36
2022-09-30T10:54:36.798Z,33.16
2022-09-30T10:57:05.230Z,33.22
2022-09-30T10:59:38.318Z,33.12
2022-09-30T11:05:02.986Z,33.36
2022-09-30T11:07:38.097Z,33.35
2022-09-30T11:10:15.301Z,33.19
2022-09-30T11:12:48.192Z,33.15
2022-09-30T11:15:23.377Z,33.33
2022-09-30T11:17:57.380Z,33.22
2022-09-30T11:20:29.493Z,33.12
2022-09-30T11:23:03.899Z,33.25
2022-09-30T11:25:42.200Z,32.76
2022-09-30T11:28:31.922Z,32.94
2022-09-30T11:31:09.483Z,32.97
2022-09-30T11:33:49.413Z,32.86
2022-09-30T11:36:24.734Z,32.91
2022-09-30T11:39:06.805Z,32.76
2022-09-30T11:41:40.251Z,32.72
2022-09-30T11:44:23.144Z,32.98
2022-09-30T11:47:10.574Z,33.15
2022-09-30T11:49:49.170Z,32.86
2022-09-30T11:52:23.540Z,33.10
2022-09-30T11:55:06.526Z,33.16
2022-09-30T11:57:42.768Z,33.26
2022-09-30T12:00:17.331Z,33.32
2022-09-30T12:02:48.928Z,33.52
2022-09-30T12:05:21.566Z,33.35
2022-09-30T12:07:53.707Z,33.56
2022-09-30T12:10:26.618Z,33.37
2022-09-30T12:13:02.666Z,33.40
2022-09-30T12:15:32.406Z,33.53
2022-09-30T12:18:02.878Z,33.42
2022-09-30T12:20:34.994Z,33.94
2022-09-30T12:23:12.584Z,33.70
2022-09-30T12:25:44.886Z,33.73
2022-09-30T12:28:44.013Z,33.78
2022-09-30T12:31:37.228Z,34.10
2022-09-30T12:34:19.097Z,33.77
2022-09-30T12:37:01.978Z,33.70
2022-09-30T12:40:08.658Z,33.94
2022-09-30T12:43:09.806Z,33.92
2022-09-30T12:46:10.552Z,33.75
2022-09-30T12:48:43.407Z,33.86
2022-09-30T12:51:22.397Z,33.83
2022-09-30T12:53:55.494Z,33.59
2022-09-30T12:56:29.790Z,33.58
2022-09-30T12:59:00.544Z,33.71
2022-09-30T13:01:32.810Z,33.54
2022-09-30T13:04:19.063Z,33.26
2022-09-30T13:07:07.166Z,33.52
2022-09-30T13:09:37.055Z,33.36
2022-09-30T13:12:25.337Z,33.02
2022-09-30T13:15:23.979Z,33.00
2022-09-30T13:17:53.357Z,33.19
2022-09-30T13:20:55.155Z,33.14
2022-09-30T13:23:39.153Z,33.22
2022-09-30T13:26:46.389Z,32.96
2022-09-30T13:29:38.234Z,33.34
2022-09-30T13:32:10.737Z,33.28
2022-09-30T13:34:56.799Z,32.95
2022-09-30T13:37:40.632Z,33.08
2022-09-30T13:40:37.831Z,33.06
2022-09-30T13:43:18.861Z,33.26
2022-09-30T13:45:48.900Z,33.13
2022-09-30T13:48:21.270Z,33.45
2022-09-30T13:50:52.832Z,33.50
2022-09-30T13:53:30.298Z,33.33
2022-09-30T13:56:02.494Z,33.26
2022-09-30T13:59:09.911Z,33.15
2022-09-30T14:01:56.446Z,33.27
2022-09-30T14:04:51.477Z,33.59
2022-09-30T14:07:33.053Z,33.69
2022-09-30T14:10:20.132Z,33.70
2022-09-30T14:13:11.751Z,33.48
2022-09-30T14:16:14.256Z,33.29
2022-09-30T14:19:10.678Z,33.62
2022-09-30T14:21:43.436Z,33.20
2022-09-30T14:24:15.072Z,33.29
2022-09-30T14:26:58.921Z,33.31
2022-09-30T14:29:36.040Z,33.78
2022-09-30T14:32:12.885Z,33.68
2022-09-30T14:34:42.004Z,33.79
2022-09-30T14:37:19.377Z,33.73
2022-09-30T14:39:50.033Z,33.91
2022-09-30T14:42:25.848Z,34.14
2022-09-30T14:44:56.774Z,34.16
2022-09-30T14:47:26.817Z,33.86
2022-09-30T14:49:54.942Z,33.94
2022-09-30T14:52:37.992Z,33.85
2022-09-30T14:55:22.081Z,34.11
2022-09-30T14:57:50.549Z,34.22
2022-09-30T15:00:32.719Z,33.91
2022-09-30T15:03:01.111Z,34.30
2022-09-30T15:05:29.664Z,33.94
2022-09-30T15:07:57.622Z,33.91
2022-09-30T15:10:26.921Z,33.84
2022-09-30T15:12:56.081Z,34.14
2022-09-30T15:15:35.598Z,34.21
2022-09-30T15:18:28.691Z,34.01
2022-09-30T15:21:00.049Z,34.10
2022-09-30T15:23:32.044Z,34.34
2022-09-30T15:26:02.239Z,34.26
2022-09-30T15:28:30.256Z,34.24
2022-09-30T15:30:59.938Z,34.35
2022-09-30T15:33:31.982Z,34.23
2022-09-30T15:36:08.290Z,34.16
2022-09-30T15:38:38.517Z,34.03
2022-09-30T15:41:10.102Z,34.05
2022-09-30T15:43:41.640Z,34.37
2022-09-30T15:46:27.441Z,34.00
2022-09-30T15:48:57.508Z,34.32
2022-09-30T15:51:34.706Z,34.16
2022-09-30T15:54:17.529Z,34.26
2022-09-30T15:56:46.858Z,34.31
2022-09-30T15:59:15.588Z,34.45
2022-09-30T16:01:45.665Z,34.60
2022-09-30T16:04:24.646Z,34.48
2022-09-30T16:06:55.251Z,34.61
2022-09-30T16:09:29.106Z,34.71
2022-09-30T16:12:06.484Z,34.73
2022-09-30T16:14:42.268Z,34.74
2022-09-30T16:17:19.112Z,34.74
2022-09-30T16:19:52.297Z,35.19
2022-09-30T16:22:49.504Z,34.95
2022-09-30T16:25:21.618Z,35.31
2022-09-30T16:27:57.748Z,35.35
2022-09-30T16:30:26.295Z,35.46
2022-09-30T16:32:58.185Z,35.58
2022-09-30T16:35:28.345Z,35.44
2022-09-30T16:38:01.331Z,35.32
2022-09-30T16:40:30.550Z,35.80
2022-09-30T16:43:01.392Z,35.77
2022-09-30T16:45:31.264Z,35.47
2022-09-30T16:48:01.542Z,35.92
2022-09-30T16:50:34.551Z,35.86
2022-09-30T16:53:02.440Z,35.53
2022-09-30T16:55:30.835Z,35.99
2022-09-30T16:58:00.565Z,35.70
2022-09-30T17:00:29.770Z,35.96
2022-09-30T17:02:57.917Z,36.02
2022-09-30T17:05:27.341Z,35.80
2022-09-30T17:07:56.631Z,36.05
2022-09-30T17:10:28.909Z,35.88
2022-09-30T17:12:57.623Z,35.66
2022-09-30T17:15:28.101Z,35.83
2022-09-30T17:17:56.199Z,35.76
2022-09-30T17:20:24.546Z,36.05
2022-09-30T17:22:52.586Z,35.76
2022-09-30T17:25:20.601Z,36.05
2022-09-30T17:27:50.078Z,35.73
2022-09-30T17:30:18.540Z,35.65
2022-09-30T17:32:48.118Z,35.94
2022-09-30T17:35:16.787Z,35.75
2022-09-30T17:37:46.511Z,36.03
2022-09-30T17:40:32.422Z,35.79
2022-09-30T17:43:10.950Z,36.21
2022-09-30T17:45:40.388Z,35.92
2022-09-30T17:48:10.646Z,36.22
2022-09-30T17:50:39.690Z,36.07
2022-09-30T17:53:07.844Z,36.33
2022-09-30T17:55:36.186Z,36.35
2022-09-30T17:58:04.190Z,36.35
2022-09-30T18:00:33.620Z,36.46
2022-09-30T18:03:02.800Z,36.03
2022-09-30T18:05:33.189Z,36.19
2022-09-30T18:08:01.147Z,36.01
2022-09-30T18:10:29.140Z,36.48
2022-09-30T18:12:57.186Z,36.38
2022-09-30T18:15:27.068Z,36.08
2022-09-30T18:17:55.032Z,36.37
2022-09-30T18:20:25.422Z,36.37
2022-09-30T18:22:55.094Z,36.15
2022-09-30T18:25:23.206Z,36.61
2022-09-30T18:27:53.270Z,36.37
2022-09-30T18:30:21.821Z,36.39
2022-09-30T18:32:50.557Z,36.22
2022-09-30T18:35:20.428Z,36.38
2022-09-30T18:37:49.812Z,36.47
2022-09-30T18:40:21.091Z,36.29
2022-09-30T18:42:49.638Z,36.73
2022-09-30T18:45:17.656Z,36.62
2022-09-30T18:47:45.838Z,36.46
2022-09-30T18:50:17.260Z,36.27
2022-09-30T18:52:45.293Z,36.46
2022-09-30T18:55:13.492Z,36.49
2022-09-30T18:57:43.113Z,36.33
2022-09-30T19:00:12.237Z,36.54
2022-09-30T19:02:41.174Z,36.30
2022-09-30T19:05:10.216Z,36.45
2022-09-30T19:07:39.612Z,36.65
2022-09-30T19:10:09.893Z,36.30
2022-09-30T19:12:39.217Z,36.68
2022-09-30T19:15:13.125Z,36.80
2022-09-30T19:17:41.656Z,36.57
2022-09-30T19:20:09.938Z,36.41
2022-09-30T19:22:38.551Z,36.57
2022-09-30T19:25:08.070Z,36.20
2022-09-30T19:27:37.786Z,36.27
2022-09-30T19:30:11.547Z,36.54
2022-09-30T19:32:40.875Z,36.32
2022-09-30T19:35:11.823Z,36.56
2022-09-30T19:37:55.532Z,36.17
2022-09-30T19:40:28.167Z,36.33
2022-09-30T19:42:56.124Z,36.47
2022-09-30T19:45:26.400Z,36.45
2022-09-30T19:47:54.963Z,36.14
2022-09-30T19:50:23.005Z,36.53
2022-09-30T19:52:57.282Z,36.53
2022-09-30T19:55:26.569Z,36.18
2022-09-30T19:57:54.845Z,36.50
2022-09-30T20:00:22.819Z,36.56
2022-09-30T20:02:52.716Z,36.58
2022-09-30T20:05:21.610Z,36.53
2022-09-30T20:07:51.153Z,36.49
2022-09-30T20:10:19.494Z,36.51
2022-09-30T20:12:47.944Z,36.32
2022-09-30T20:15:33.162Z,36.49
2022-09-30T20:18:02.456Z,36.44
2022-09-30T20:20:37.297Z,36.58
2022-09-30T20:23:05.580Z,36.59
2022-09-30T20:25:35.472Z,36.60
2022-09-30T20:28:04.833Z,36.74
2022-09-30T20:30:33.274Z,36.61
2022-09-30T20:33:02.888Z,36.44
2022-09-30T20:35:30.791Z,36.67
2022-09-30T20:37:58.727Z,36.30
2022-09-30T20:40:26.669Z,36.52
2022-09-30T20:43:00.666Z,36.38
2022-09-30T20:45:29.329Z,36.56
2022-09-30T20:47:57.274Z,36.57
2022-09-30T20:50:39.398Z,36.69
2022-09-30T20:53:09.766Z,36.30
2022-09-30T20:55:40.277Z,36.37
2022-09-30T20:58:09.793Z,36.68
2022-09-30T21:00:39.884Z,36.52
2022-09-30T21:03:09.902Z,36.38
2022-09-30T21:05:39.542Z,36.75
2022-09-30T21:08:07.496Z,36.66
2022-09-30T21:10:36.996Z,36.32
2022-09-30T21:13:10.179Z,36.45
2022-09-30T21:15:38.412Z,36.69
2022-09-30T21:18:06.530Z,36.88
2022-09-30T21:20:34.595Z,36.95
2022-09-30T21:23:04.198Z,36.72
2022-09-30T21:25:32.506Z,36.64
2022-09-30T21:28:00.420Z,36.98
2022-09-30T21:30:28.966Z,36.77
2022-09-30T21:32:56.881Z,37.06
2022-09-30T21:35:24.760Z,36.94
2022-09-30T21:37:52.709Z,36.84
2022-09-30T21:40:21.968Z,36.71
2022-09-30T21:42:49.845Z,36.89
2022-09-30T21:45:20.079Z,36.87
2022-09-30T21:47:48.027Z,36.88
2022-09-30T21:50:16.073Z,36.77
2022-09-30T21:52:44.048Z,36.92
2022-09-30T21:55:13.351Z,36.95
2022-09-30T21:57:43.351Z,37.25
2022-09-30T22:00:12.333Z,37.12
2022-09-30T22:02:43.728Z,37.29
2022-09-30T22:05:12.121Z,37.19
2022-09-30T22:07:40.116Z,37.17
2022-09-30T22:10:08.953Z,37.25
2022-09-30T22:12:36.829Z,37.30
2022-09-30T22:15:07.157Z,37.81
2022-09-30T22:17:35.081Z,37.66
2022-09-30T22:20:02.974Z,37.43
2022-09-30T22:22:30.890Z,37.74
2022-09-30T22:24:58.746Z,37.83
2022-09-30T22:27:26.733Z,37.53
2022-09-30T22:29:54.588Z,37.88
2022-09-30T22:32:23.881Z,37.68
2022-09-30T22:35:09.072Z,37.80
2022-09-30T22:37:54.373Z,37.92
2022-09-30T22:40:22.337Z,37.69
2022-09-30T22:42:50.384Z,37.69
2022-09-30T22:45:18.281Z,38.07
2022-09-30T22:47:47.532Z,37.90
2022-09-30T22:50:15.938Z,37.80
2022-09-30T22:52:43.792Z,37.74
2022-09-30T22:55:11.683Z,38.11
2022-09-30T22:57:39.548Z,38.03
2022-09-30T23:00:08.311Z,37.72
2022-09-30T23:02:36.313Z,37.97
2022-09-30T23:05:06.758Z,38.10
2022-09-30T23:07:34.647Z,38.14
2022-09-30T23:10:02.924Z,37.83
2022-09-30T23:12:32.367Z,37.93
2022-09-30T23:15:00.244Z,38.49
2022-09-30T23:17:28.131Z,38.26
2022-09-30T23:19:56.005Z,38.54
2022-09-30T23:22:25.261Z,38.29
2022-09-30T23:24:53.101Z,38.32
2022-09-30T23:27:20.992Z,38.42
2022-09-30T23:29:48.865Z,38.07
2022-09-30T23:32:16.931Z,38.35
2022-09-30T23:34:44.906Z,38.31
2022-09-30T23:37:12.777Z,38.00
2022-09-30T23:39:42.045Z,38.39
2022-09-30T23:42:09.909Z,38.03
2022-09-30T23:44:37.785Z,38.46
2022-09-30T23:47:21.599Z,38.33
2022-09-30T23:49:50.463Z,38.58
2022-09-30T23:52:18.582Z,38.55
2022-09-30T23:54:48.201Z,38.52
2022-09-30T23:57:16.068Z,38.72
2022-09-30T23:59:43.945Z,38.72
